Time;durP1;ratioP1;P1;durP2;ratioP2;P2;SDS_P1;SDS_P2;PMS_P1;PMS_P2;Temp;Humidity;BMP_temperature;BMP_pressure;BME280_temperature;BME280_humidity;BME280_pressure;Samples;Min_cycle;Max_cycle;Signal;HPM_P1;HPM_P2
2023/10/21 00:02:09;;;;;;;0.10;0.10;;;;;;;;;;5087457;28;20494;-83
2023/10/21 00:04:36;;;;;;;0.10;0.10;;;;;;;;;;5087337;28;20107;-83
2023/10/21 00:07:02;;;;;;;0.10;0.10;;;;;;;;;;5088137;28;20060;-85
2023/10/21 00:09:29;;;;;;;0.10;0.10;;;;;;;;;;5069539;28;20570;-83
2023/10/21 00:11:55;;;;;;;0.10;0.10;;;;;;;;;;5072508;28;20148;-85
2023/10/21 00:14:21;;;;;;;0.10;0.10;;;;;;;;;;5069629;28;20053;-83
2023/10/21 00:16:52;;;;;;;0.10;0.10;;;;;;;;;;5092120;28;20060;-82
2023/10/21 00:19:18;;;;;;;0.10;0.10;;;;;;;;;;5089681;28;20480;-84
2023/10/21 00:21:45;;;;;;;0.10;0.10;;;;;;;;;;5073266;28;20509;-84
2023/10/21 00:24:11;;;;;;;0.10;0.10;;;;;;;;;;5087308;28;20064;-84
2023/10/21 00:26:44;;;;;;;0.20;0.20;;;;;;;;;;5081073;28;20487;-84
2023/10/21 00:29:11;;;;;;;0.10;0.10;;;;;;;;;;5067771;28;20128;-84
2023/10/21 00:31:38;;;;;;;0.10;0.10;;;;;;;;;;5073326;28;20061;-84
2023/10/21 00:34:04;;;;;;;0.10;0.10;;;;;;;;;;5087652;28;20530;-83
2023/10/21 00:36:30;;;;;;;0.10;0.10;;;;;;;;;;5092021;28;20586;-83
2023/10/21 00:38:57;;;;;;;1.23;0.80;;;;;;;;;;5087531;28;20476;-83
2023/10/21 00:41:24;;;;;;;0.10;0.10;;;;;;;;;;5092318;28;20136;-82
2023/10/21 00:43:50;;;;;;;0.32;0.32;;;;;;;;;;5072343;28;20059;-84
2023/10/21 00:46:17;;;;;;;0.10;0.10;;;;;;;;;;5088254;28;20563;-84
2023/10/21 00:48:47;;;;;;;0.10;0.10;;;;;;;;;;5088704;28;20056;-83
2023/10/21 00:51:15;;;;;;;0.10;0.10;;;;;;;;;;5084569;28;20052;-83
2023/10/21 00:53:42;;;;;;;0.10;0.10;;;;;;;;;;5073827;28;20056;-83
2023/10/21 00:56:08;;;;;;;0.10;0.10;;;;;;;;;;5084621;28;20068;-83
2023/10/21 00:58:35;;;;;;;0.10;0.10;;;;;;;;;;5092285;28;20138;-82
2023/10/21 01:01:06;;;;;;;0.10;0.10;;;;;;;;;;5088221;28;20033;-83
2023/10/21 01:03:33;;;;;;;0.10;0.10;;;;;;;;;;5088838;28;20304;-85
2023/10/21 01:06:00;;;;;;;0.10;0.10;;;;;;;;;;5091984;28;20068;-84
2023/10/21 01:08:26;;;;;;;0.10;0.10;;;;;;;;;;5092085;28;20056;-84
2023/10/21 01:10:52;;;;;;;0.10;0.10;;;;;;;;;;5092008;28;20502;-84
2023/10/21 01:13:19;;;;;;;0.32;0.32;;;;;;;;;;5087301;28;20489;-82
2023/10/21 01:15:45;;;;;;;0.10;0.10;;;;;;;;;;5071623;28;20110;-82
2023/10/21 01:18:13;;;;;;;0.10;0.10;;;;;;;;;;5091913;28;20057;-83
2023/10/21 01:20:41;;;;;;;0.10;0.10;;;;;;;;;;5091269;28;20114;-84
2023/10/21 01:23:07;;;;;;;0.10;0.10;;;;;;;;;;5080210;28;20140;-82
2023/10/21 01:25:34;;;;;;;0.10;0.10;;;;;;;;;;5093397;28;20068;-84
2023/10/21 01:28:01;;;;;;;0.10;0.10;;;;;;;;;;5087925;28;20141;-84
2023/10/21 01:30:27;;;;;;;0.10;0.10;;;;;;;;;;5090979;28;20056;-84
2023/10/21 01:32:54;;;;;;;0.10;0.10;;;;;;;;;;5072879;28;20453;-84
2023/10/21 01:35:21;;;;;;;0.30;0.30;;;;;;;;;;5088985;28;20130;-84
2023/10/21 01:37:48;;;;;;;0.20;0.20;;;;;;;;;;5089985;28;20049;-84
2023/10/21 01:40:14;;;;;;;0.10;0.10;;;;;;;;;;5091137;28;20136;-84
2023/10/21 01:42:41;;;;;;;0.20;0.20;;;;;;;;;;5068288;28;20078;-83
2023/10/21 01:45:07;;;;;;;0.10;0.10;;;;;;;;;;5070793;28;20580;-83
2023/10/21 01:47:35;;;;;;;0.20;0.20;;;;;;;;;;5091620;28;20044;-83
2023/10/21 01:50:03;;;;;;;0.20;0.20;;;;;;;;;;5090900;28;20524;-83
2023/10/21 01:52:29;;;;;;;0.10;0.10;;;;;;;;;;5071968;28;20049;-83
2023/10/21 01:54:56;;;;;;;0.10;0.10;;;;;;;;;;5084083;28;20053;-83
2023/10/21 01:57:22;;;;;;;0.22;0.22;;;;;;;;;;5090352;28;20072;-82
2023/10/21 01:59:49;;;;;;;0.10;0.10;;;;;;;;;;5080037;28;20088;-83
2023/10/21 02:02:15;;;;;;;0.10;0.10;;;;;;;;;;5089827;28;20574;-83
2023/10/21 02:04:42;;;;;;;0.25;0.25;;;;;;;;;;5093842;28;20139;-82
2023/10/21 02:07:09;;;;;;;0.10;0.10;;;;;;;;;;5069483;28;20698;-83
2023/10/21 02:09:36;;;;;;;0.10;0.10;;;;;;;;;;5059311;28;20048;-82
2023/10/21 02:12:03;;;;;;;0.05;0.05;;;;;;;;;;5087150;28;20052;-84
2023/10/21 02:14:29;;;;;;;0.13;0.13;;;;;;;;;;5092568;28;20597;-84
2023/10/21 02:16:56;;;;;;;0.10;0.10;;;;;;;;;;5085558;28;20056;-83
2023/10/21 02:19:24;;;;;;;0.20;0.20;;;;;;;;;;5079246;28;20035;-83
2023/10/21 02:21:51;;;;;;;0.10;0.10;;;;;;;;;;5092484;28;20048;-83
2023/10/21 02:24:17;;;;;;;0.10;0.10;;;;;;;;;;5088986;28;20142;-83
2023/10/21 02:26:44;;;;;;;0.10;0.10;;;;;;;;;;5083087;28;20818;-83
2023/10/21 02:29:10;;;;;;;0.10;0.10;;;;;;;;;;5092781;28;20056;-84
2023/10/21 02:31:37;;;;;;;0.10;0.10;;;;;;;;;;5066253;28;20095;-83
2023/10/21 02:34:03;;;;;;;0.10;0.10;;;;;;;;;;5070658;28;20580;-84
2023/10/21 02:36:30;;;;;;;0.10;0.10;;;;;;;;;;5068160;28;20107;-82
2023/10/21 02:38:56;;;;;;;0.10;0.10;;;;;;;;;;5074605;28;20919;-84
2023/10/21 02:41:22;;;;;;;0.60;0.40;;;;;;;;;;5080919;28;20061;-83
2023/10/21 02:43:49;;;;;;;0.10;0.10;;;;;;;;;;5091208;28;20142;-83
2023/10/21 02:46:15;;;;;;;0.10;0.10;;;;;;;;;;5088432;28;20514;-82
2023/10/21 02:48:44;;;;;;;0.10;0.10;;;;;;;;;;5089751;28;20072;-84
2023/10/21 02:51:11;;;;;;;0.20;0.20;;;;;;;;;;5084414;28;20057;-83
2023/10/21 02:53:37;;;;;;;0.10;0.10;;;;;;;;;;5089943;28;20049;-83
2023/10/21 02:56:05;;;;;;;0.03;0.03;;;;;;;;;;5088685;28;20095;-83
2023/10/21 02:58:32;;;;;;;1.17;0.85;;;;;;;;;;5068198;28;20044;-83
2023/10/21 03:01:02;;;;;;;0.10;0.10;;;;;;;;;;5074721;28;20128;-84
2023/10/21 03:03:28;;;;;;;0.10;0.10;;;;;;;;;;5063766;28;20057;-83
2023/10/21 03:05:55;;;;;;;0.10;0.10;;;;;;;;;;5092958;28;20083;-83
2023/10/21 03:08:21;;;;;;;0.10;0.10;;;;;;;;;;5084968;28;20090;-83
2023/10/21 03:10:48;;;;;;;0.10;0.10;;;;;;;;;;5069966;28;20083;-84
2023/10/21 03:13:14;;;;;;;0.10;0.10;;;;;;;;;;5087747;28;20083;-83
2023/10/21 03:15:40;;;;;;;0.10;0.10;;;;;;;;;;5089394;28;20129;-84
2023/10/21 03:18:07;;;;;;;0.10;0.10;;;;;;;;;;5090228;28;20049;-84
2023/10/21 03:20:33;;;;;;;0.10;0.10;;;;;;;;;;5085881;28;20064;-83
2023/10/21 03:23:00;;;;;;;0.22;0.22;;;;;;;;;;5067515;28;20053;-84
2023/10/21 03:25:26;;;;;;;0.80;0.63;;;;;;;;;;5089091;28;20076;-84
2023/10/21 03:27:52;;;;;;;0.45;0.38;;;;;;;;;;5068057;28;20513;-83
2023/10/21 03:30:19;;;;;;;0.10;0.10;;;;;;;;;;5086414;28;20056;-84
2023/10/21 03:32:45;;;;;;;0.10;0.10;;;;;;;;;;5102992;27;20051;-84
2023/10/21 03:35:12;;;;;;;0.10;0.10;;;;;;;;;;5088614;28;20076;-84
2023/10/21 03:37:38;;;;;;;0.28;0.28;;;;;;;;;;5084540;28;20091;-83
2023/10/21 03:40:05;;;;;;;0.10;0.10;;;;;;;;;;5070649;28;20057;-83
2023/10/21 03:42:32;;;;;;;0.10;0.10;;;;;;;;;;5086907;28;20051;-84
2023/10/21 03:44:59;;;;;;;0.10;0.10;;;;;;;;;;5088255;28;20126;-83
2023/10/21 03:47:25;;;;;;;0.10;0.10;;;;;;;;;;5089158;28;20707;-83
2023/10/21 03:49:51;;;;;;;0.10;0.10;;;;;;;;;;5069375;28;20056;-82
2023/10/21 03:52:18;;;;;;;0.10;0.10;;;;;;;;;;5082777;28;20044;-83
2023/10/21 03:54:44;;;;;;;0.13;0.13;;;;;;;;;;5087806;28;20053;-84
2023/10/21 03:57:11;;;;;;;0.10;0.10;;;;;;;;;;5088628;28;20510;-83
2023/10/21 03:59:37;;;;;;;0.10;0.10;;;;;;;;;;5071655;28;20542;-83
2023/10/21 04:02:04;;;;;;;0.10;0.10;;;;;;;;;;5093404;28;20052;-84
2023/10/21 04:04:30;;;;;;;1.23;0.47;;;;;;;;;;5087035;28;20139;-84
2023/10/21 04:06:57;;;;;;;0.10;0.10;;;;;;;;;;5083456;28;20420;-83
2023/10/21 04:09:25;;;;;;;0.10;0.10;;;;;;;;;;5073604;28;20057;-83
2023/10/21 04:11:51;;;;;;;0.10;0.10;;;;;;;;;;5087239;28;20101;-83
2023/10/21 04:14:18;;;;;;;0.10;0.10;;;;;;;;;;5092035;28;20167;-83
2023/10/21 04:16:44;;;;;;;0.10;0.10;;;;;;;;;;5074596;28;20708;-83
2023/10/21 04:19:11;;;;;;;0.10;0.10;;;;;;;;;;5090201;28;20044;-83
2023/10/21 04:21:37;;;;;;;0.30;0.30;;;;;;;;;;5072223;28;20545;-83
2023/10/21 04:24:04;;;;;;;0.10;0.10;;;;;;;;;;5088633;28;20449;-83
2023/10/21 04:26:30;;;;;;;0.10;0.10;;;;;;;;;;5086093;28;20060;-84
2023/10/21 04:28:57;;;;;;;0.10;0.10;;;;;;;;;;5073640;28;20063;-84
2023/10/21 04:31:24;;;;;;;0.10;0.10;;;;;;;;;;5090497;28;20056;-84
2023/10/21 04:33:50;;;;;;;0.10;0.10;;;;;;;;;;5093107;28;20079;-83
2023/10/21 04:36:17;;;;;;;0.05;0.05;;;;;;;;;;5090981;28;20053;-83
2023/10/21 04:38:44;;;;;;;0.10;0.10;;;;;;;;;;5092559;28;20076;-84
2023/10/21 04:41:10;;;;;;;0.20;0.20;;;;;;;;;;5070991;28;20147;-82
2023/10/21 04:43:36;;;;;;;0.10;0.10;;;;;;;;;;5063893;28;20168;-82
2023/10/21 04:46:03;;;;;;;0.10;0.10;;;;;;;;;;5091479;28;20052;-83
2023/10/21 04:48:29;;;;;;;0.10;0.10;;;;;;;;;;5091558;28;20140;-83
2023/10/21 04:50:56;;;;;;;0.10;0.10;;;;;;;;;;5092138;28;20048;-83
2023/10/21 04:53:23;;;;;;;0.10;0.10;;;;;;;;;;5089749;28;20063;-83
2023/10/21 04:55:49;;;;;;;0.10;0.10;;;;;;;;;;5100769;28;20049;-83
2023/10/21 04:58:16;;;;;;;0.10;0.10;;;;;;;;;;5091524;28;20083;-83
2023/10/21 05:00:42;;;;;;;0.10;0.10;;;;;;;;;;5073229;28;20097;-83
2023/10/21 05:03:09;;;;;;;0.10;0.10;;;;;;;;;;5089437;28;20063;-84
2023/10/21 05:05:37;;;;;;;0.10;0.10;;;;;;;;;;5089394;28;20068;-82
2023/10/21 05:08:06;;;;;;;0.10;0.10;;;;;;;;;;5087071;28;20052;-83
2023/10/21 05:10:32;;;;;;;0.10;0.10;;;;;;;;;;5089545;28;20144;-83
2023/10/21 05:12:58;;;;;;;0.30;0.20;;;;;;;;;;5062925;28;20095;-82
2023/10/21 05:15:25;;;;;;;0.45;0.40;;;;;;;;;;5090208;28;20056;-82
2023/10/21 05:17:51;;;;;;;0.20;0.20;;;;;;;;;;5095050;28;20052;-83
2023/10/21 05:20:18;;;;;;;0.10;0.10;;;;;;;;;;5086359;28;20086;-84
2023/10/21 05:22:44;;;;;;;0.40;0.40;;;;;;;;;;5083438;28;20559;-84
2023/10/21 05:25:11;;;;;;;0.10;0.10;;;;;;;;;;5088673;28;20037;-83
2023/10/21 05:27:37;;;;;;;0.10;0.10;;;;;;;;;;5089780;28;20080;-83
2023/10/21 05:30:03;;;;;;;0.10;0.10;;;;;;;;;;5087468;28;20056;-83
2023/10/21 05:32:30;;;;;;;0.10;0.10;;;;;;;;;;5091743;28;20056;-83
2023/10/21 05:34:56;;;;;;;0.10;0.10;;;;;;;;;;5086682;28;20048;-83
2023/10/21 05:37:23;;;;;;;0.00;0.00;;;;;;;;;;5067920;28;20519;-84
2023/10/21 05:39:49;;;;;;;0.40;0.30;;;;;;;;;;5081731;28;20041;-83
2023/10/21 05:42:15;;;;;;;0.10;0.10;;;;;;;;;;5087922;28;20057;-82
2023/10/21 05:44:42;;;;;;;0.10;0.10;;;;;;;;;;5066969;28;20052;-82
2023/10/21 05:47:15;;;;;;;0.08;0.08;;;;;;;;;;5091339;28;20059;-83
2023/10/21 05:49:41;;;;;;;0.10;0.10;;;;;;;;;;5068553;28;20114;-84
2023/10/21 05:52:08;;;;;;;0.10;0.10;;;;;;;;;;5077030;28;20495;-82
2023/10/21 05:54:34;;;;;;;0.10;0.10;;;;;;;;;;5092933;28;20060;-81
2023/10/21 05:57:00;;;;;;;0.10;0.10;;;;;;;;;;5092721;28;20053;-83
2023/10/21 05:59:27;;;;;;;0.10;0.10;;;;;;;;;;5099117;28;20063;-81
2023/10/21 06:01:53;;;;;;;0.13;0.13;;;;;;;;;;5097744;27;20056;-83
2023/10/21 06:04:20;;;;;;;0.10;0.10;;;;;;;;;;5085881;28;20056;-83
2023/10/21 06:06:49;;;;;;;0.10;0.10;;;;;;;;;;5069294;28;20430;-82
2023/10/21 06:09:16;;;;;;;0.10;0.10;;;;;;;;;;5070041;28;20541;-83
2023/10/21 06:11:43;;;;;;;0.10;0.10;;;;;;;;;;5083838;28;20108;-83
2023/10/21 06:14:09;;;;;;;0.17;0.17;;;;;;;;;;5077485;28;20053;-82
2023/10/21 06:16:36;;;;;;;0.10;0.10;;;;;;;;;;5084140;28;20053;-81
2023/10/21 06:19:02;;;;;;;0.10;0.10;;;;;;;;;;5087118;28;20048;-82
2023/10/21 06:21:29;;;;;;;0.10;0.10;;;;;;;;;;5089220;28;20501;-82
2023/10/21 06:23:56;;;;;;;0.10;0.10;;;;;;;;;;5088446;28;20053;-82
2023/10/21 06:26:22;;;;;;;0.10;0.10;;;;;;;;;;5081438;28;20056;-83
2023/10/21 06:28:48;;;;;;;0.10;0.10;;;;;;;;;;5086080;28;20572;-83
2023/10/21 06:31:15;;;;;;;0.10;0.10;;;;;;;;;;5084424;28;20048;-84
2023/10/21 06:33:42;;;;;;;0.10;0.10;;;;;;;;;;5083188;28;20064;-85
2023/10/21 06:36:08;;;;;;;0.10;0.10;;;;;;;;;;5063291;28;20118;-84
2023/10/21 06:38:35;;;;;;;0.10;0.10;;;;;;;;;;5082813;28;20560;-83
2023/10/21 06:41:02;;;;;;;0.10;0.10;;;;;;;;;;5085231;28;20538;-82
2023/10/21 06:43:40;;;;;;;0.10;0.10;;;;;;;;;;5097022;27;20049;-83
2023/10/21 06:46:06;;;;;;;0.10;0.10;;;;;;;;;;5093782;28;20064;-83
2023/10/21 06:48:33;;;;;;;0.20;0.20;;;;;;;;;;5088215;28;20521;-81
2023/10/21 06:51:00;;;;;;;0.10;0.10;;;;;;;;;;5088822;28;20576;-84
2023/10/21 06:53:29;;;;;;;0.30;0.30;;;;;;;;;;5082629;28;20053;-82
2023/10/21 06:55:55;;;;;;;0.10;0.10;;;;;;;;;;5086669;28;20135;-84
2023/10/21 06:58:21;;;;;;;0.17;0.17;;;;;;;;;;5084698;28;20110;-83
2023/10/21 07:00:48;;;;;;;0.10;0.10;;;;;;;;;;5086779;28;20056;-82
2023/10/21 07:03:15;;;;;;;0.90;0.65;;;;;;;;;;5068690;28;20049;-82
2023/10/21 07:05:41;;;;;;;0.10;0.10;;;;;;;;;;5087051;28;20053;-83
2023/10/21 07:08:08;;;;;;;0.10;0.10;;;;;;;;;;5069618;28;20053;-83
2023/10/21 07:10:34;;;;;;;0.10;0.10;;;;;;;;;;5103827;27;20167;-84
2023/10/21 07:13:01;;;;;;;0.03;0.03;;;;;;;;;;5086692;28;20403;-83
2023/10/21 07:15:28;;;;;;;0.10;0.10;;;;;;;;;;5090981;28;20109;-83
2023/10/21 07:17:56;;;;;;;0.13;0.13;;;;;;;;;;5071063;28;20131;-84
2023/10/21 07:20:23;;;;;;;0.10;0.10;;;;;;;;;;5089097;28;20143;-82
2023/10/21 07:22:50;;;;;;;0.10;0.10;;;;;;;;;;5083535;28;20060;-84
2023/10/21 07:25:18;;;;;;;0.10;0.10;;;;;;;;;;5086049;28;20080;-82
2023/10/21 07:27:45;;;;;;;0.10;0.10;;;;;;;;;;5071612;28;20063;-85
2023/10/21 07:30:11;;;;;;;0.10;0.10;;;;;;;;;;5083441;28;20045;-82
2023/10/21 07:32:38;;;;;;;0.10;0.10;;;;;;;;;;5068032;28;20061;-82
2023/10/21 07:35:05;;;;;;;0.00;0.00;;;;;;;;;;5068227;28;20100;-85
2023/10/21 07:37:31;;;;;;;0.10;0.10;;;;;;;;;;5098075;28;20056;-84
2023/10/21 07:40:00;;;;;;;0.10;0.10;;;;;;;;;;5086606;28;20048;-81
2023/10/21 07:42:27;;;;;;;0.10;0.10;;;;;;;;;;5091145;28;20072;-82
2023/10/21 07:44:53;;;;;;;0.10;0.10;;;;;;;;;;5091219;28;20048;-81
2023/10/21 07:47:20;;;;;;;0.10;0.10;;;;;;;;;;5086606;28;20123;-81
2023/10/21 07:49:47;;;;;;;0.10;0.10;;;;;;;;;;5088947;28;20045;-81
2023/10/21 07:52:13;;;;;;;0.20;0.20;;;;;;;;;;5091246;28;20130;-81
2023/10/21 07:54:40;;;;;;;0.10;0.10;;;;;;;;;;5084281;28;20709;-82
2023/10/21 07:57:08;;;;;;;0.43;0.43;;;;;;;;;;5104648;27;20083;-81
2023/10/21 07:59:34;;;;;;;0.30;0.30;;;;;;;;;;5094073;28;20060;-81
2023/10/21 08:02:01;;;;;;;0.40;0.28;;;;;;;;;;5092315;28;20465;-81
2023/10/21 08:04:28;;;;;;;0.10;0.10;;;;;;;;;;5085842;28;20529;-81
2023/10/21 08:06:55;;;;;;;0.10;0.10;;;;;;;;;;5089723;28;20048;-81
2023/10/21 08:09:22;;;;;;;1.33;0.85;;;;;;;;;;5085687;28;20454;-81
2023/10/21 08:11:48;;;;;;;0.40;0.40;;;;;;;;;;5089113;28;20055;-80
2023/10/21 08:14:14;;;;;;;0.20;0.20;;;;;;;;;;5082145;28;20529;-80
2023/10/21 08:16:44;;;;;;;0.10;0.10;;;;;;;;;;5082629;28;20052;-80
2023/10/21 08:19:10;;;;;;;0.10;0.10;;;;;;;;;;5084630;28;20078;-80
2023/10/21 08:21:37;;;;;;;0.15;0.15;;;;;;;;;;5073557;28;20102;-79
2023/10/21 08:24:03;;;;;;;0.10;0.10;;;;;;;;;;5093281;28;20655;-80
2023/10/21 08:26:31;;;;;;;0.10;0.10;;;;;;;;;;5089121;28;20064;-80
2023/10/21 08:28:58;;;;;;;0.20;0.20;;;;;;;;;;5081480;28;20044;-80
2023/10/21 08:31:24;;;;;;;0.10;0.10;;;;;;;;;;5085543;28;20080;-80
2023/10/21 08:33:52;;;;;;;0.10;0.10;;;;;;;;;;5089774;28;20581;-80
2023/10/21 08:36:19;;;;;;;0.10;0.10;;;;;;;;;;5075695;28;20052;-81
2023/10/21 08:38:46;;;;;;;0.10;0.10;;;;;;;;;;5083676;28;20053;-80
2023/10/21 08:41:13;;;;;;;0.47;0.20;;;;;;;;;;5104953;27;20057;-80
2023/10/21 08:43:45;;;;;;;0.10;0.10;;;;;;;;;;5071970;28;20095;-82
2023/10/21 08:46:11;;;;;;;0.10;0.10;;;;;;;;;;5086188;28;21317;-81
2023/10/21 08:48:38;;;;;;;0.10;0.10;;;;;;;;;;5080846;28;20056;-80
2023/10/21 08:51:04;;;;;;;0.10;0.10;;;;;;;;;;5069859;28;20061;-82
2023/10/21 08:53:33;;;;;;;0.10;0.10;;;;;;;;;;5085041;28;20076;-80
2023/10/21 08:55:59;;;;;;;0.43;0.30;;;;;;;;;;5081214;28;20059;-83
2023/10/21 08:58:29;;;;;;;0.10;0.10;;;;;;;;;;5070715;28;20080;-81
2023/10/21 09:00:55;;;;;;;0.10;0.10;;;;;;;;;;5080500;28;20929;-80
2023/10/21 09:03:22;;;;;;;0.28;0.28;;;;;;;;;;5082207;28;20165;-80
2023/10/21 09:06:10;;;;;;;0.10;0.10;;;;;;;;;;5083119;28;20056;-81
2023/10/21 09:08:38;;;;;;;0.10;0.10;;;;;;;;;;5071696;28;20048;-82
2023/10/21 09:11:07;;;;;;;0.10;0.10;;;;;;;;;;5087382;28;20091;-82
2023/10/21 09:13:37;;;;;;;0.10;0.10;;;;;;;;;;5074393;28;20498;-81
2023/10/21 09:16:24;;;;;;;0.68;0.32;;;;;;;;;;5070315;28;20576;-79
2023/10/21 09:19:01;;;;;;;0.10;0.10;;;;;;;;;;5086714;28;20051;-82
2023/10/21 09:21:37;;;;;;;0.10;0.10;;;;;;;;;;5087279;28;20151;-81
2023/10/21 09:24:04;;;;;;;0.10;0.10;;;;;;;;;;5079578;28;20572;-81
2023/10/21 09:26:40;;;;;;;0.10;0.10;;;;;;;;;;5069954;28;20056;-81
2023/10/21 09:29:08;;;;;;;0.10;0.10;;;;;;;;;;5084018;28;22316;-81
2023/10/21 09:31:51;;;;;;;1.55;0.30;;;;;;;;;;5061791;28;20471;-80
2023/10/21 09:34:24;;;;;;;0.10;0.10;;;;;;;;;;5083632;28;20044;-80
2023/10/21 09:36:55;;;;;;;0.10;0.10;;;;;;;;;;5079311;28;20075;-80
2023/10/21 09:39:22;;;;;;;0.10;0.10;;;;;;;;;;5080311;28;20061;-81
2023/10/21 09:41:48;;;;;;;0.20;0.20;;;;;;;;;;5091856;28;20052;-80
2023/10/21 09:44:16;;;;;;;0.10;0.10;;;;;;;;;;5070319;28;20667;-80
2023/10/21 09:46:44;;;;;;;0.10;0.10;;;;;;;;;;5089514;28;20064;-80
2023/10/21 09:49:11;;;;;;;0.10;0.10;;;;;;;;;;5096394;28;20126;-80
2023/10/21 09:51:45;;;;;;;0.20;0.20;;;;;;;;;;5089849;28;20057;-80
2023/10/21 09:54:14;;;;;;;0.10;0.10;;;;;;;;;;5083935;28;20125;-80
2023/10/21 09:56:41;;;;;;;0.20;0.20;;;;;;;;;;5088163;28;20053;-80
2023/10/21 09:59:08;;;;;;;0.10;0.10;;;;;;;;;;5087140;28;20075;-80
2023/10/21 10:01:39;;;;;;;0.10;0.10;;;;;;;;;;5086933;28;20118;-80
2023/10/21 10:04:09;;;;;;;0.10;0.10;;;;;;;;;;5095521;28;20056;-80
2023/10/21 10:06:39;;;;;;;0.10;0.10;;;;;;;;;;5090459;28;20430;-80
2023/10/21 10:09:11;;;;;;;0.10;0.10;;;;;;;;;;5081166;28;20053;-81
2023/10/21 10:11:38;;;;;;;0.10;0.10;;;;;;;;;;5087423;28;20052;-80
2023/10/21 10:14:05;;;;;;;0.10;0.10;;;;;;;;;;5090489;28;20678;-81
2023/10/21 10:16:32;;;;;;;0.10;0.10;;;;;;;;;;5089071;28;20497;-80
2023/10/21 10:18:59;;;;;;;0.10;0.10;;;;;;;;;;5086245;28;20896;-80
2023/10/21 10:21:27;;;;;;;0.20;0.15;;;;;;;;;;5088740;28;20059;-80
2023/10/21 10:24:00;;;;;;;0.10;0.10;;;;;;;;;;5068842;28;20045;-80
2023/10/21 10:26:46;;;;;;;0.10;0.10;;;;;;;;;;5081924;28;20056;-80
2023/10/21 10:29:18;;;;;;;0.10;0.10;;;;;;;;;;5084179;28;20072;-81
2023/10/21 10:31:47;;;;;;;0.10;0.10;;;;;;;;;;5100813;28;20562;-80
2023/10/21 10:34:15;;;;;;;;;;;;;;;;;;5079934;28;20106;-80
2023/10/21 10:36:41;;;;;;;0.10;0.10;;;;;;;;;;5087206;28;47991;-80
2023/10/21 10:39:27;;;;;;;0.10;0.10;;;;;;;;;;5069768;28;20076;-80
2023/10/21 10:41:54;;;;;;;0.20;0.20;;;;;;;;;;5086143;28;20089;-80
2023/10/21 10:44:20;;;;;;;0.10;0.10;;;;;;;;;;5069980;28;20053;-80
2023/10/21 10:46:46;;;;;;;0.10;0.10;;;;;;;;;;5076666;28;20582;-80
2023/10/21 10:49:13;;;;;;;0.10;0.10;;;;;;;;;;5075007;28;20143;-80
2023/10/21 10:51:43;;;;;;;0.20;0.20;;;;;;;;;;5086386;28;20446;-80
2023/10/21 10:54:15;;;;;;;0.10;0.10;;;;;;;;;;5084227;28;20052;-80
2023/10/21 10:56:50;;;;;;;0.10;0.10;;;;;;;;;;5081621;28;20728;-82
2023/10/21 10:59:20;;;;;;;0.10;0.10;;;;;;;;;;5093945;28;20056;-81
2023/10/21 11:01:57;;;;;;;0.20;0.20;;;;;;;;;;5094687;27;20053;-81
2023/10/21 11:04:23;;;;;;;0.43;0.30;;;;;;;;;;5066298;28;20499;-81
2023/10/21 11:06:50;;;;;;;0.10;0.10;;;;;;;;;;5081322;28;20056;-81
2023/10/21 11:09:23;;;;;;;0.10;0.10;;;;;;;;;;5080847;28;20576;-81
2023/10/21 11:11:54;;;;;;;0.30;0.30;;;;;;;;;;5065909;28;20052;-81
2023/10/21 11:14:35;;;;;;;0.10;0.10;;;;;;;;;;5079812;28;20134;-80
2023/10/21 11:17:02;;;;;;;0.10;0.10;;;;;;;;;;5089420;28;20048;-81
2023/10/21 11:19:30;;;;;;;0.10;0.10;;;;;;;;;;5070210;28;20570;-81
2023/10/21 11:21:56;;;;;;;0.10;0.10;;;;;;;;;;5085293;28;20143;-81
2023/10/21 11:24:25;;;;;;;0.10;0.10;;;;;;;;;;5081256;28;20108;-80
2023/10/21 11:26:53;;;;;;;0.10;0.10;;;;;;;;;;5091319;28;20064;-80
2023/10/21 11:29:19;;;;;;;0.17;0.17;;;;;;;;;;5075798;28;20048;-80
2023/10/21 11:31:46;;;;;;;0.57;0.57;;;;;;;;;;5083529;28;20053;-81
2023/10/21 11:34:12;;;;;;;0.52;0.52;;;;;;;;;;5086467;28;20059;-80
2023/10/21 11:36:44;;;;;;;0.10;0.10;;;;;;;;;;5088869;28;20098;-80
2023/10/21 11:39:13;;;;;;;0.10;0.10;;;;;;;;;;5086112;28;21086;-82
2023/10/21 11:41:47;;;;;;;0.13;0.13;;;;;;;;;;5067810;28;20820;-80
2023/10/21 11:44:17;;;;;;;0.10;0.10;;;;;;;;;;5092114;28;20143;-80
2023/10/21 11:46:43;;;;;;;0.10;0.10;;;;;;;;;;5066507;28;20079;-80
2023/10/21 11:49:13;;;;;;;0.10;0.10;;;;;;;;;;5085190;28;20048;-81
2023/10/21 11:51:41;;;;;;;0.10;0.10;;;;;;;;;;5079497;28;20053;-81
2023/10/21 11:54:23;;;;;;;0.10;0.10;;;;;;;;;;5087425;28;20503;-80
2023/10/21 11:57:25;;;;;;;0.10;0.10;;;;;;;;;;5080470;28;20052;-80
2023/10/21 12:13:19;;;;;;;0.10;0.10;;;;;;;;;;5083621;28;20052;-79
2023/10/21 12:15:50;;;;;;;0.10;0.10;;;;;;;;;;5080412;28;20215;-80
2023/10/21 12:21:41;;;;;;;0.10;0.10;;;;;;;;;;5088883;28;20098;-79
2023/10/21 12:24:45;;;;;;;0.10;0.10;;;;;;;;;;5085317;28;20048;-79
2023/10/21 12:32:43;;;;;;;0.13;0.13;;;;;;;;;;5086028;28;20138;-78
2023/10/21 12:43:18;;;;;;;0.10;0.10;;;;;;;;;;5093050;28;20052;-79
2023/10/21 12:45:45;;;;;;;0.10;0.10;;;;;;;;;;5095886;28;20433;-78
2023/10/21 12:48:17;;;;;;;0.10;0.10;;;;;;;;;;5091567;28;20584;-79
2023/10/21 12:50:44;;;;;;;0.10;0.10;;;;;;;;;;5089652;28;20057;-79
2023/10/21 12:53:12;;;;;;;0.15;0.15;;;;;;;;;;5083209;28;20102;-79
2023/10/21 12:55:38;;;;;;;0.20;0.20;;;;;;;;;;5085747;28;20049;-78
2023/10/21 12:58:05;;;;;;;0.45;0.45;;;;;;;;;;5097429;28;20052;-78
2023/10/21 13:00:31;;;;;;;0.10;0.10;;;;;;;;;;5096118;28;20060;-78
2023/10/21 13:02:57;;;;;;;0.10;0.10;;;;;;;;;;5088208;28;20164;-79
2023/10/21 13:05:24;;;;;;;0.10;0.10;;;;;;;;;;5089279;28;20056;-79
2023/10/21 13:07:52;;;;;;;0.10;0.10;;;;;;;;;;5092779;28;20048;-79
2023/10/21 13:10:18;;;;;;;0.10;0.10;;;;;;;;;;5070178;28;20052;-79
2023/10/21 13:12:46;;;;;;;0.10;0.10;;;;;;;;;;5089844;28;20059;-79
2023/10/21 13:15:13;;;;;;;0.10;0.10;;;;;;;;;;5100295;28;20960;-79
2023/10/21 13:17:40;;;;;;;4.40;0.95;;;;;;;;;;5080588;28;20072;-79
2023/10/21 13:20:16;;;;;;;0.10;0.10;;;;;;;;;;5089352;28;20057;-78
2023/10/21 13:22:44;;;;;;;4.90;0.55;;;;;;;;;;5087531;28;20049;-79
2023/10/21 13:25:13;;;;;;;0.20;0.20;;;;;;;;;;5091746;28;20095;-78
2023/10/21 13:27:45;;;;;;;0.10;0.10;;;;;;;;;;5078351;28;20088;-78
2023/10/21 13:30:13;;;;;;;0.10;0.10;;;;;;;;;;5087585;28;20051;-78
2023/10/21 13:32:41;;;;;;;0.10;0.10;;;;;;;;;;5113479;22;20073;-81
2023/10/21 13:35:11;;;;;;;0.10;0.10;;;;;;;;;;5105310;27;20177;-81
2023/10/21 13:37:39;;;;;;;0.10;0.10;;;;;;;;;;5122227;27;20055;-82
2023/10/21 13:40:16;;;;;;;0.10;0.10;;;;;;;;;;5125196;27;20590;-82
2023/10/21 13:42:46;;;;;;;0.10;0.10;;;;;;;;;;5110409;27;20036;-81
2023/10/21 13:45:22;;;;;;;0.10;0.10;;;;;;;;;;5113574;27;20078;-81
2023/10/21 13:47:54;;;;;;;0.10;0.10;;;;;;;;;;5105472;27;20058;-81
2023/10/21 13:50:25;;;;;;;0.10;0.10;;;;;;;;;;5113847;27;20048;-82
2023/10/21 13:52:55;;;;;;;0.20;0.20;;;;;;;;;;5114369;27;20151;-81
2023/10/21 13:55:22;;;;;;;0.10;0.10;;;;;;;;;;5112568;27;20517;-81
2023/10/21 13:57:48;;;;;;;0.10;0.10;;;;;;;;;;5108610;27;20066;-82
2023/10/21 14:00:33;;;;;;;0.10;0.10;;;;;;;;;;5129492;27;20056;-81
2023/10/21 14:03:08;;;;;;;0.10;0.10;;;;;;;;;;5132225;27;20047;-81
2023/10/21 14:05:35;;;;;;;0.10;0.10;;;;;;;;;;5108814;27;20054;-79
2023/10/21 14:08:01;;;;;;;0.10;0.10;;;;;;;;;;5126739;27;20051;-80
2023/10/21 14:10:28;;;;;;;0.10;0.10;;;;;;;;;;5134481;27;20062;-81
2023/10/21 14:12:54;;;;;;;11.27;0.90;;;;;;;;;;5114399;27;20055;-80
2023/10/21 14:15:22;;;;;;;0.10;0.10;;;;;;;;;;5115369;27;20055;-80
2023/10/21 14:17:50;;;;;;;0.30;0.30;;;;;;;;;;5131393;27;20070;-80
2023/10/21 14:20:16;;;;;;;0.10;0.10;;;;;;;;;;5132228;27;20055;-80
2023/10/21 14:22:43;;;;;;;0.10;0.10;;;;;;;;;;5112882;27;20576;-80
2023/10/21 14:25:09;;;;;;;0.10;0.10;;;;;;;;;;5126220;27;20059;-80
2023/10/21 14:27:37;;;;;;;0.73;0.43;;;;;;;;;;5112271;27;20215;-79
2023/10/21 14:30:11;;;;;;;0.10;0.10;;;;;;;;;;5129164;27;20138;-80
2023/10/21 14:32:41;;;;;;;0.10;0.10;;;;;;;;;;5111454;27;20852;-82
2023/10/21 14:35:09;;;;;;;0.20;0.20;;;;;;;;;;5130424;27;20572;-81
2023/10/21 14:37:37;;;;;;;0.10;0.10;;;;;;;;;;5123259;27;20056;-79
2023/10/21 14:40:06;;;;;;;0.10;0.10;;;;;;;;;;5125975;27;20083;-80
2023/10/21 14:42:34;;;;;;;0.10;0.10;;;;;;;;;;5109203;27;20087;-79
2023/10/21 14:45:01;;;;;;;0.10;0.10;;;;;;;;;;5099385;27;20051;-79
2023/10/21 14:47:30;;;;;;;0.15;0.15;;;;;;;;;;5121660;27;20133;-77
2023/10/21 14:49:58;;;;;;;1.20;0.82;;;;;;;;;;5118788;27;20164;-79
2023/10/21 14:52:24;;;;;;;0.10;0.10;;;;;;;;;;5120406;27;20055;-77
2023/10/21 14:54:52;;;;;;;0.38;0.38;;;;;;;;;;5118831;27;20236;-77
2023/10/21 14:57:19;;;;;;;0.10;0.10;;;;;;;;;;5122207;27;20261;-77
2023/10/21 14:59:46;;;;;;;0.10;0.10;;;;;;;;;;5105495;27;20080;-78
2023/10/21 15:02:12;;;;;;;0.10;0.10;;;;;;;;;;5104136;27;20052;-79
2023/10/21 15:04:39;;;;;;;0.10;0.10;;;;;;;;;;5121625;27;20796;-78
2023/10/21 15:07:06;;;;;;;0.10;0.10;;;;;;;;;;5121658;27;20052;-81
2023/10/21 15:09:32;;;;;;;0.10;0.10;;;;;;;;;;5122260;27;20085;-80
2023/10/21 15:11:59;;;;;;;0.10;0.10;;;;;;;;;;5118892;27;20476;-77
2023/10/21 15:14:25;;;;;;;0.10;0.10;;;;;;;;;;5121726;27;20059;-78
2023/10/21 15:17:12;;;;;;;0.10;0.10;;;;;;;;;;5108772;27;20150;-81
2023/10/21 15:19:38;;;;;;;1.98;0.90;;;;;;;;;;5104296;27;20111;-79